Time;durP1;ratioP1;P1;durP2;ratioP2;P2;SDS_P1;SDS_P2;PMS_P1;PMS_P2;Temp;Humidity;BMP_temperature;BMP_pressure;BME280_temperature;BME280_humidity;BME280_pressure;Samples;Min_cycle;Max_cycle;Signal;HPM_P1;HPM_P2
2022/11/08 00:01:31;;;;;;;;;;;;;;;-143.48;77.17;78218.41;5136042;27;20011;-34
2022/11/08 00:03:56;;;;;;;;;;;;;;;-143.48;77.46;78220.41;5135762;27;19951;-34
2022/11/08 00:14:33;;;;;;;;;;;;;;;-143.48;78.08;78244.19;5135529;27;19934;-34
2022/11/08 00:16:58;;;;;;;;;;;;;;;-143.48;78.17;78238.25;5135553;27;19994;-35
2022/11/08 00:19:24;;;;;;;;;;;;;;;-143.48;78.17;78244.19;5135426;27;19915;-34
2022/11/08 00:21:49;;;;;;;;;;;;;;;-143.48;78.56;78258.06;5135762;27;19911;-35
2022/11/08 00:24:14;;;;;;;;;;;;;;;-143.48;78.75;78264.03;5135464;27;19918;-35
2022/11/08 00:26:39;;;;;;;;;;;;;;;-143.48;78.99;78266.00;5135730;27;19918;-34
2022/11/08 00:29:05;;;;;;;;;;;;;;;-143.48;79.39;78285.84;5135339;27;20538;-34
2022/11/08 00:31:30;;;;;;;;;;;;;;;-143.48;79.31;78275.94;5135548;27;19998;-34
2022/11/08 00:33:55;;;;;;;;;;;;;;;-143.48;79.72;78281.88;5135166;27;20009;-34
2022/11/08 00:36:20;;;;;;;;;;;;;;;-143.48;80.07;78279.88;5135285;27;19911;-34
2022/11/08 00:38:45;;;;;;;;;;;;;;;-143.48;80.22;78287.81;5135091;27;19916;-35
2022/11/08 00:41:11;;;;;;;;;;;;;;;-143.48;80.47;78285.84;5135409;27;19911;-35
2022/11/08 00:43:36;;;;;;;;;;;;;;;-143.48;80.47;78293.78;5135356;27;20433;-34
2022/11/08 00:46:01;;;;;;;;;;;;;;;-143.48;80.80;78287.81;5135297;27;20185;-34
2022/11/08 00:48:27;;;;;;;;;;;;;;;-143.48;80.71;78309.63;5134268;27;19919;-33
2022/11/08 00:50:52;;;;;;;;;;;;;;;-143.48;80.92;78295.75;5134890;27;19915;-34
2022/11/08 00:53:17;;;;;;;;;;;;;;;-143.48;81.03;78301.72;5135021;27;19911;-34
2022/11/08 00:55:42;;;;;;;;;;;;;;;-143.48;81.18;78309.63;5116418;28;19915;-35
2022/11/08 00:58:08;;;;;;;;;;;;;;;-143.48;81.29;78315.59;5134868;27;19911;-34
2022/11/08 01:00:33;;;;;;;;;;;;;;;-143.48;81.40;78317.56;5134887;27;19964;-35
2022/11/08 01:05:42;;;;;;;;;;;;;;;-143.48;81.70;78317.56;5135526;28;19960;-35
2022/11/08 01:08:08;;;;;;;;;;;;;;;-143.48;81.71;78327.50;5135604;28;20338;-34
2022/11/08 01:10:34;;;;;;;;;;;;;;;-143.48;81.79;78313.59;5135164;28;20304;-34
2022/11/08 01:12:59;;;;;;;;;;;;;;;-143.48;81.79;78321.53;5134720;28;19918;-34
2022/11/08 01:15:24;;;;;;;;;;;;;;;-143.48;81.73;78321.53;5134778;28;19919;-34
2022/11/08 01:17:49;;;;;;;;;;;;;;;-143.48;81.95;78321.53;5116391;28;20021;-35
2022/11/08 01:20:15;;;;;;;;;;;;;;;-143.48;81.94;78319.56;5134607;28;19915;-34
2022/11/08 01:22:40;;;;;;;;;;;;;;;-143.48;81.88;78319.56;5135274;28;19912;-34
2022/11/08 01:25:05;;;;;;;;;;;;;;;-143.48;82.04;78323.53;5134935;28;19912;-34
2022/11/08 01:27:31;;;;;;;;;;;;;;;-143.48;82.41;78323.53;5135588;28;19964;-35
2022/11/08 01:29:56;;;;;;;;;;;;;;;-143.48;82.39;78323.53;5134974;28;19911;-34
2022/11/08 01:32:21;;;;;;;;;;;;;;;-143.48;82.61;78327.50;5134904;28;19912;-35
2022/11/08 01:34:46;;;;;;;;;;;;;;;-143.48;82.78;78325.50;5135187;28;20266;-34
2022/11/08 01:37:11;;;;;;;;;;;;;;;-143.48;83.04;78329.47;5134592;28;19919;-34
2022/11/08 01:39:36;;;;;;;;;;;;;;;-143.48;83.40;78335.41;5135110;28;19962;-35
2022/11/08 01:42:02;;;;;;;;;;;;;;;-143.48;83.43;78325.50;5134819;28;19916;-35
2022/11/08 01:44:27;;;;;;;;;;;;;;;-143.48;83.72;78327.50;5135081;28;20246;-35
2022/11/08 01:46:52;;;;;;;;;;;;;;;-143.48;83.52;78325.50;5134768;28;19916;-34
2022/11/08 01:49:22;;;;;;;;;;;;;;;-143.48;83.72;78331.44;5134505;28;20381;-34
2022/11/08 01:51:54;;;;;;;;;;;;;;;-143.48;83.75;78329.47;5135030;28;19934;-34
2022/11/08 01:54:24;;;;;;;;;;;;;;;-143.48;83.92;78323.53;5134739;28;19911;-34
2022/11/08 01:56:50;;;;;;;;;;;;;;;-143.48;83.98;78323.53;5134675;28;20274;-34
2022/11/08 01:59:16;;;;;;;;;;;;;;;-143.48;83.90;78323.53;5134466;27;19922;-34
2022/11/08 02:01:42;;;;;;;;;;;;;;;-143.48;83.94;78315.59;5137609;27;19918;-35
2022/11/08 02:04:08;;;;;;;;;;;;;;;-143.48;83.78;78313.59;5138439;27;19912;-34
2022/11/08 02:06:35;;;;;;;;;;;;;;;-143.48;84.07;78315.59;5138386;27;19919;-34
2022/11/08 02:09:02;;;;;;;;;;;;;;;-143.48;84.49;78313.59;5138078;27;19912;-34
2022/11/08 02:11:28;;;;;;;;;;;;;;;-143.48;84.45;78325.50;5137966;27;19916;-34
2022/11/08 02:13:54;;;;;;;;;;;;;;;-143.48;84.45;78325.50;5137963;27;19979;-34
2022/11/08 02:16:19;;;;;;;;;;;;;;;-143.48;83.62;78317.56;5137826;27;19919;-35
2022/11/08 02:18:45;;;;;;;;;;;;;;;-143.48;83.98;78315.59;5137757;27;20060;-34
2022/11/08 02:21:15;;;;;;;;;;;;;;;-143.48;83.82;78299.72;5137871;27;20281;-34
2022/11/08 02:23:45;;;;;;;;;;;;;;;-143.48;83.67;78307.66;5138386;27;20067;-34
2022/11/08 02:26:10;;;;;;;;;;;;;;;-143.48;83.11;78295.75;5137769;27;19916;-34
2022/11/08 02:28:39;;;;;;;;;;;;;;;-143.48;82.93;78301.72;5137927;27;20362;-34
2022/11/08 02:31:06;;;;;;;;;;;;;;;-143.48;83.10;78303.69;5137757;27;19984;-35
2022/11/08 02:33:32;;;;;;;;;;;;;;;-143.48;83.27;78305.66;5137599;27;19925;-34
2022/11/08 02:35:57;;;;;;;;;;;;;;;-143.48;83.53;78307.66;5119142;27;19915;-34
2022/11/08 02:38:24;;;;;;;;;;;;;;;-143.48;83.07;78297.75;5137397;27;20015;-34
2022/11/08 02:40:54;;;;;;;;;;;;;;;-143.48;82.95;78283.84;5137703;27;19911;-34
2022/11/08 02:43:20;;;;;;;;;;;;;;;-143.48;82.82;78293.78;5137412;27;19960;-35
2022/11/08 02:45:45;;;;;;;;;;;;;;;-143.48;83.06;78293.78;5138172;27;19911;-35
2022/11/08 02:48:10;;;;;;;;;;;;;;;-143.48;82.94;78293.78;5137600;27;19918;-33
2022/11/08 02:50:36;;;;;;;;;;;;;;;-143.48;83.56;78299.72;5137279;27;19911;-34
2022/11/08 02:53:01;;;;;;;;;;;;;;;-143.48;83.33;78301.72;5137216;27;19911;-35
2022/11/08 02:55:27;;;;;;;;;;;;;;;-143.48;83.66;78297.75;5137168;27;19960;-34
2022/11/08 02:57:52;;;;;;;;;;;;;;;-143.48;83.51;78295.75;5137401;27;19919;-34
2022/11/08 03:00:18;;;;;;;;;;;;;;;-143.48;83.56;78295.75;5136864;27;20379;-34
2022/11/08 03:02:43;;;;;;;;;;;;;;;-143.48;83.88;78293.78;5137299;27;19911;-34
2022/11/08 03:05:08;;;;;;;;;;;;;;;-143.48;83.83;78297.75;5136996;27;19960;-34
2022/11/08 03:07:33;;;;;;;;;;;;;;;-143.48;83.92;78305.66;5137496;27;19998;-34
2022/11/08 03:09:58;;;;;;;;;;;;;;;-143.48;84.11;78311.63;5137182;27;19919;-36
2022/11/08 03:12:23;;;;;;;;;;;;;;;-143.48;84.40;78305.66;5136100;27;19919;-34
2022/11/08 03:14:49;;;;;;;;;;;;;;;-143.48;84.48;78307.66;5136797;27;19962;-34
2022/11/08 03:17:14;;;;;;;;;;;;;;;-143.48;84.42;78295.75;5137013;27;19918;-35
2022/11/08 03:19:39;;;;;;;;;;;;;;;-143.48;84.74;78303.69;5136654;27;20384;-35
2022/11/08 03:22:04;;;;;;;;;;;;;;;-143.48;84.12;78301.72;5118257;27;19979;-35
2022/11/08 03:24:29;;;;;;;;;;;;;;;-143.48;83.63;78279.88;5137079;27;19912;-34
2022/11/08 03:26:55;;;;;;;;;;;;;;;-143.48;83.64;78277.91;5136850;27;20336;-34
2022/11/08 03:29:20;;;;;;;;;;;;;;;-143.48;84.10;78281.88;5136785;27;20013;-34
2022/11/08 03:31:45;;;;;;;;;;;;;;;-143.48;84.06;78285.84;5136758;27;19934;-35
2022/11/08 03:34:10;;;;;;;;;;;;;;;-143.48;84.66;78285.84;5136369;27;19968;-35
2022/11/08 03:36:35;;;;;;;;;;;;;;;-143.48;84.88;78287.81;5136304;27;19964;-34
2022/11/08 03:39:01;;;;;;;;;;;;;;;-143.48;84.78;78283.84;5136790;27;19919;-34
2022/11/08 03:41:26;;;;;;;;;;;;;;;-143.48;85.23;78269.97;5136534;27;20353;-33
2022/11/08 03:43:51;;;;;;;;;;;;;;;-143.48;85.18;78277.91;5136508;27;19912;-34
2022/11/08 03:46:16;;;;;;;;;;;;;;;-143.48;85.15;78279.88;5136892;27;19912;-34
2022/11/08 03:48:41;;;;;;;;;;;;;;;-143.48;85.35;78279.88;5136718;27;19911;-34
2022/11/08 03:51:07;;;;;;;;;;;;;;;-143.48;85.11;78271.97;5136368;27;20397;-34
2022/11/08 03:53:32;;;;;;;;;;;;;;;-143.48;85.42;78271.97;5136277;27;19919;-35
2022/11/08 03:55:58;;;;;;;;;;;;;;;-143.48;85.54;78277.91;5136282;27;19911;-34
2022/11/08 03:58:23;;;;;;;;;;;;;;;-143.48;85.83;78269.97;5136067;27;20281;-34
2022/11/08 04:00:48;;;;;;;;;;;;;;;-143.48;85.33;78254.09;5136054;27;20026;-33
2022/11/08 04:03:13;;;;;;;;;;;;;;;-143.48;85.24;78258.06;5136089;27;19915;-34
2022/11/08 04:05:38;;;;;;;;;;;;;;;-143.48;85.24;78254.09;5135777;27;19911;-34
2022/11/08 04:08:04;;;;;;;;;;;;;;;-143.48;84.98;78248.16;5135969;27;20009;-35
2022/11/08 04:10:29;;;;;;;;;;;;;;;-143.48;84.60;78236.25;5135970;27;20334;-34
2022/11/08 04:15:41;;;;;;;;;;;;;;;-143.48;84.16;78224.38;5135854;27;19927;-34
2022/11/08 04:23:35;;;;;;;;;;;;;;;-143.48;83.25;78222.38;5135617;27;19918;-35
2022/11/08 04:26:02;;;;;;;;;;;;;;;-143.48;83.17;78222.38;5135674;27;19911;-34
2022/11/08 04:28:29;;;;;;;;;;;;;;;-143.48;83.08;78218.41;5135634;27;19987;-35
2022/11/08 04:30:55;;;;;;;;;;;;;;;-143.48;82.72;78212.47;5135311;27;19915;-35
2022/11/08 04:33:21;;;;;;;;;;;;;;;-143.48;82.53;78218.41;5135642;27;20382;-34
2022/11/08 04:35:46;;;;;;;;;;;;;;;-143.48;82.31;78216.44;5135509;27;19918;-35
2022/11/08 04:38:11;;;;;;;;;;;;;;;-143.48;81.80;78204.53;5135385;27;20311;-34
2022/11/08 04:40:37;;;;;;;;;;;;;;;-143.48;81.99;78206.50;5135222;27;19915;-34
2022/11/08 04:43:02;;;;;;;;;;;;;;;-143.48;81.69;78204.53;5135162;27;19915;-34
2022/11/08 04:45:27;;;;;;;;;;;;;;;-143.48;81.02;78194.63;5135115;27;19911;-34
2022/11/08 04:47:52;;;;;;;;;;;;;;;-143.48;80.89;78192.63;5135359;27;19922;-33
2022/11/08 04:50:17;;;;;;;;;;;;;;;-143.48;80.74;78192.63;5116675;27;20411;-35
2022/11/08 04:52:49;;;;;;;;;;;;;;;-143.48;80.63;78184.69;5135192;27;19921;-34
2022/11/08 04:55:14;;;;;;;;;;;;;;;-143.48;80.03;78178.75;5116640;28;19911;-33
2022/11/08 04:57:39;;;;;;;;;;;;;;;-143.48;79.98;78172.81;5135287;27;19918;-34
2022/11/08 05:00:05;;;;;;;;;;;;;;;-143.48;79.71;78158.91;5135388;27;20020;-34
2022/11/08 05:02:30;;;;;;;;;;;;;;;-143.48;79.38;78154.94;5135227;28;19939;-35
2022/11/08 05:04:56;;;;;;;;;;;;;;;-143.48;79.35;78164.88;5134877;28;20381;-34
2022/11/08 05:07:21;;;;;;;;;;;;;;;-143.48;79.36;78164.88;5134886;28;19911;-34
2022/11/08 05:09:47;;;;;;;;;;;;;;;-143.48;79.50;78152.97;5135458;28;19911;-35
2022/11/08 05:12:12;;;;;;;;;;;;;;;-143.48;79.53;78158.91;5135205;28;19916;-34
2022/11/08 05:14:37;;;;;;;;;;;;;;;-143.48;79.12;78158.91;5134886;28;19926;-34
2022/11/08 05:17:03;;;;;;;;;;;;;;;-143.48;79.07;78162.88;5135405;28;20013;-35
2022/11/08 05:24:55;;;;;;;;;;;;;;;-143.48;78.77;78149.00;5135643;28;20281;-36
2022/11/08 05:27:21;;;;;;;;;;;;;;;-143.48;78.36;78151.00;5135482;28;19911;-35
2022/11/08 05:29:46;;;;;;;;;;;;;;;-143.48;78.22;78151.00;5134963;28;19912;-35
2022/11/08 05:32:11;;;;;;;;;;;;;;;-143.48;78.06;78154.94;5134594;28;19911;-35
2022/11/08 05:34:36;;;;;;;;;;;;;;;-143.48;77.52;78139.09;5135277;27;19911;-35
2022/11/08 05:37:01;;;;;;;;;;;;;;;-143.48;77.42;78147.03;5138430;27;20281;-33
2022/11/08 05:39:27;;;;;;;;;;;;;;;-143.48;77.26;78135.13;5138624;27;19967;-36
2022/11/08 05:41:52;;;;;;;;;;;;;;;-143.48;77.34;78147.03;5139180;27;19960;-34
2022/11/08 05:44:17;;;;;;;;;;;;;;;-143.48;76.38;78137.09;5138838;27;19912;-35
2022/11/08 05:46:42;;;;;;;;;;;;;;;-143.48;76.26;78129.16;5138746;27;19923;-35
2022/11/08 05:49:07;;;;;;;;;;;;;;;-143.48;76.38;78127.19;5138687;27;20365;-35
2022/11/08 05:51:33;;;;;;;;;;;;;;;-143.48;75.85;78131.16;5138326;27;19922;-40
2022/11/08 05:53:58;;;;;;;;;;;;;;;-143.48;75.52;78107.34;5138370;27;19964;-33
2022/11/08 05:56:23;;;;;;;;;;;;;;;-143.48;75.55;78119.25;5138326;27;20336;-33
2022/11/08 05:58:49;;;;;;;;;;;;;;;-143.48;75.16;78115.28;5138767;27;20027;-34
2022/11/08 06:01:15;;;;;;;;;;;;;;;-143.48;75.43;78123.22;5138422;27;20373;-34
2022/11/08 06:03:41;;;;;;;;;;;;;;;-143.48;75.44;78127.19;5137094;27;20018;-39
2022/11/08 06:06:07;;;;;;;;;;;;;;;-143.48;75.84;78121.25;5119659;27;20383;-35
2022/11/08 06:08:33;;;;;;;;;;;;;;;-143.48;75.58;78137.09;5139222;27;19916;-35
2022/11/08 06:11:00;;;;;;;;;;;;;;;-143.48;75.80;78131.16;5138265;27;19911;-36
2022/11/08 06:13:25;;;;;;;;;;;;;;;-143.48;75.88;78143.06;5138030;27;20014;-35
2022/11/08 06:15:51;;;;;;;;;;;;;;;-143.48;75.77;78129.16;5137891;27;20006;-34
2022/11/08 06:18:16;;;;;;;;;;;;;;;-143.48;75.55;78133.13;5137753;27;19912;-33
2022/11/08 06:20:41;;;;;;;;;;;;;;;-143.48;75.20;78127.19;5119364;27;19911;-33
2022/11/08 06:23:06;;;;;;;;;;;;;;;-143.48;75.41;78129.16;5137925;27;20350;-34
2022/11/08 06:25:31;;;;;;;;;;;;;;;-143.48;75.12;78123.22;5138178;27;20018;-34
2022/11/08 06:27:58;;;;;;;;;;;;;;;-143.48;75.49;78137.09;5137578;27;20357;-34
2022/11/08 06:30:23;;;;;;;;;;;;;;;-143.48;74.81;78125.22;5137733;27;20362;-34
2022/11/08 06:32:48;;;;;;;;;;;;;;;-143.48;74.58;78125.22;5137368;27;19911;-34
2022/11/08 06:35:13;;;;;;;;;;;;;;;-143.48;73.58;78113.31;5137226;27;19911;-32
2022/11/08 06:37:39;;;;;;;;;;;;;;;-143.48;73.49;78123.22;5137249;27;19912;-34
2022/11/08 06:40:04;;;;;;;;;;;;;;;-143.48;72.71;78115.28;5137172;27;19919;-34
2022/11/08 06:42:29;;;;;;;;;;;;;;;-143.48;73.08;78117.28;5137160;27;20382;-34
2022/11/08 06:44:54;;;;;;;;;;;;;;;-143.48;72.77;78105.38;5137385;27;19915;-33
2022/11/08 06:47:20;;;;;;;;;;;;;;;-143.48;73.21;78117.28;5137756;27;19911;-34
2022/11/08 06:49:45;;;;;;;;;;;;;;;-143.48;73.11;78117.28;5117968;27;19960;-34
2022/11/08 06:52:10;;;;;;;;;;;;;;;-143.48;73.17;78117.28;5137136;27;19911;-33
2022/11/08 06:54:35;;;;;;;;;;;;;;;-143.48;73.24;78117.28;5137192;27;19911;-35
2022/11/08 06:57:01;;;;;;;;;;;;;;;-143.48;72.78;78119.25;5136982;27;19916;-35
2022/11/08 06:59:26;;;;;;;;;;;;;;;-143.48;72.58;78119.25;5137065;27;20028;-34
2022/11/08 07:01:52;;;;;;;;;;;;;;;-143.48;72.28;78115.28;5136808;27;19919;-33
2022/11/08 07:04:17;;;;;;;;;;;;;;;-143.48;72.53;78121.25;5136559;27;19947;-34
2022/11/08 07:06:42;;;;;;;;;;;;;;;-143.48;72.22;78119.25;5136247;27;20320;-34
2022/11/08 07:09:08;;;;;;;;;;;;;;;-143.48;71.87;78119.25;5136688;27;20010;-34
2022/11/08 07:11:33;;;;;;;;;;;;;;;-143.48;72.35;78125.22;5136759;27;20404;-34
2022/11/08 07:13:58;;;;;;;;;;;;;;;-143.48;71.82;78121.25;5136583;27;19912;-34
2022/11/08 07:16:23;;;;;;;;;;;;;;;-143.48;71.60;78111.31;5136137;27;19951;-34
2022/11/08 07:18:50;;;;;;;;;;;;;;;-143.48;71.58;78097.44;5136543;27;19915;-34
2022/11/08 07:21:15;;;;;;;;;;;;;;;-143.48;71.22;78093.47;5136079;27;19911;-34
2022/11/08 07:23:40;;;;;;;;;;;;;;;-143.48;70.92;78105.38;5136330;27;19918;-35
2022/11/08 07:26:07;;;;;;;;;;;;;;;-143.48;70.78;78097.44;5136798;27;19919;-33
2022/11/08 07:28:33;;;;;;;;;;;;;;;-143.48;70.79;78079.59;5136723;27;19915;-34
2022/11/08 07:30:59;;;;;;;;;;;;;;;-143.48;70.43;78081.56;5136188;27;20353;-34
2022/11/08 07:33:25;;;;;;;;;;;;;;;-143.48;70.26;78061.75;5135347;27;19960;-34
2022/11/08 07:35:50;;;;;;;;;;;;;;;-143.48;69.98;78079.59;5134769;27;20308;-34
2022/11/08 07:38:15;;;;;;;;;;;;;;;-143.48;69.85;78065.72;5135031;27;19918;-35
2022/11/08 07:40:40;;;;;;;;;;;;;;;-143.48;69.41;78055.81;5134863;27;19911;-34
2022/11/08 07:43:06;;;;;;;;;;;;;;;-143.48;69.34;78051.84;5134201;27;20417;-34
2022/11/08 07:45:31;;;;;;;;;;;;;;;-143.48;68.64;78041.91;5134404;27;19918;-34
2022/11/08 07:48:04;;;;;;;;;;;;;;;-143.48;69.04;78039.94;5135706;27;19911;-35
2022/11/08 07:50:29;;;;;;;;;;;;;;;-143.48;68.48;78057.78;5135985;27;19916;-35
2022/11/08 07:52:54;;;;;;;;;;;;;;;-143.48;67.86;78047.88;5135859;27;19915;-35
2022/11/08 07:55:20;;;;;;;;;;;;;;;-143.48;67.63;78039.94;5135813;27;20227;-35
2022/11/08 07:57:45;;;;;;;;;;;;;;;-143.48;67.54;78024.06;5135376;27;19911;-35
2022/11/08 08:00:10;;;;;;;;;;;;;;;-143.48;67.74;78028.03;5135479;27;19915;-35
2022/11/08 08:02:36;;;;;;;;;;;;;;;-143.48;67.32;78035.97;5135187;27;19918;-35
2022/11/08 08:05:01;;;;;;;;;;;;;;;-143.48;67.93;78049.84;5135618;27;19911;-36
2022/11/08 08:07:30;;;;;;;;;;;;;;;-143.48;68.17;78059.75;5136246;27;19943;-35
2022/11/08 08:09:55;;;;;;;;;;;;;;;-143.48;68.00;78057.78;5135488;27;19998;-35
2022/11/08 08:12:21;;;;;;;;;;;;;;;-143.48;68.09;78041.91;5134662;27;19947;-34
2022/11/08 08:14:47;;;;;;;;;;;;;;;-143.48;67.56;78033.97;5134454;27;20215;-35
2022/11/08 08:17:12;;;;;;;;;;;;;;;-143.48;67.77;78043.91;5116459;27;19911;-35
2022/11/08 08:19:37;;;;;;;;;;;;;;;-143.48;67.75;78043.91;5134929;27;20415;-35
2022/11/08 08:22:02;;;;;;;;;;;;;;;-143.48;67.67;78041.91;5135681;27;20018;-36
2022/11/08 08:24:28;;;;;;;;;;;;;;;-143.48;67.13;78030.03;5135436;27;20376;-35
2022/11/08 08:26:53;;;;;;;;;;;;;;;-143.48;66.71;78024.06;5135661;27;19912;-35
2022/11/08 08:29:19;;;;;;;;;;;;;;;-143.48;66.91;78045.88;5135631;27;19912;-36
2022/11/08 08:31:44;;;;;;;;;;;;;;;-143.48;66.56;78024.06;5135510;27;19919;-37
2022/11/08 08:34:09;;;;;;;;;;;;;;;-143.48;66.35;78032.00;5116786;27;19918;-35
2022/11/08 08:36:34;;;;;;;;;;;;;;;-143.48;66.32;78018.13;5135731;27;19912;-34
2022/11/08 08:38:59;;;;;;;;;;;;;;;-143.48;66.22;78020.09;5135397;27;20372;-36
2022/11/08 08:41:24;;;;;;;;;;;;;;;-143.48;66.21;78032.00;5134815;27;19959;-35
2022/11/08 08:43:50;;;;;;;;;;;;;;;-143.48;65.81;78012.16;5133375;27;19939;-35
2022/11/08 08:46:15;;;;;;;;;;;;;;;-143.48;65.42;78008.22;5134544;27;19918;-36
2022/11/08 08:48:40;;;;;;;;;;;;;;;-143.48;65.18;77982.44;5135318;27;19934;-35
2022/11/08 08:51:05;;;;;;;;;;;;;;;-143.48;64.65;77962.59;5133789;27;20384;-34
2022/11/08 08:53:31;;;;;;;;;;;;;;;-143.48;64.55;77958.63;5135179;27;20012;-34
2022/11/08 08:55:56;;;;;;;;;;;;;;;-143.48;64.21;77944.75;5135482;27;19994;-35
2022/11/08 08:58:21;;;;;;;;;;;;;;;-143.48;63.71;77942.78;5116482;27;19911;-35
2022/11/08 09:00:47;;;;;;;;;;;;;;;-143.48;63.71;77936.81;5134758;27;19920;-35
2022/11/08 09:03:12;;;;;;;;;;;;;;;-143.48;63.53;77932.84;5134720;28;20342;-36
2022/11/08 09:05:42;;;;;;;;;;;;;;;-143.48;63.48;77938.81;5134671;28;19918;-35
2022/11/08 09:08:08;;;;;;;;;;;;;;;-143.48;63.38;77936.81;5134829;28;19954;-35
2022/11/08 09:10:33;;;;;;;;;;;;;;;-143.48;63.83;77942.78;5136496;27;19911;-36
2022/11/08 09:12:59;;;;;;;;;;;;;;;-143.48;64.09;77948.72;5138105;27;19911;-35
2022/11/08 09:15:25;;;;;;;;;;;;;;;-143.48;64.38;77954.66;5139256;27;19919;-35
2022/11/08 09:17:52;;;;;;;;;;;;;;;-143.48;nan;77952.69;5139593;27;19990;-35
2022/11/08 09:20:17;;;;;;;;;;;;;;;-143.48;64.73;77958.63;5138535;27;19915;-35
2022/11/08 09:22:43;;;;;;;;;;;;;;;-143.48;nan;77946.72;5138612;27;19922;-35
2022/11/08 09:25:09;;;;;;;;;;;;;;;-143.48;64.33;77934.84;5139499;27;19911;-35
2022/11/08 09:27:34;;;;;;;;;;;;;;;-143.48;63.59;77905.09;5139029;27;19912;-35
2022/11/08 09:30:00;;;;;;;;;;;;;;;-143.48;63.22;77899.13;5138789;27;20388;-40
2022/11/08 09:32:27;;;;;;;;;;;;;;;-143.48;63.44;77905.09;5138949;27;19911;-36
2022/11/08 09:34:53;;;;;;;;;;;;;;;-143.48;63.41;77895.19;5138843;27;19912;-37
2022/11/08 09:37:18;;;;;;;;;;;;;;;-143.48;63.45;77905.09;5138459;27;19912;-35
2022/11/08 09:39:43;;;;;;;;;;;;;;;-143.48;63.24;77889.22;5138488;27;19916;-35
2022/11/08 09:42:25;;;;;;;;;;;;;;;-143.48;63.14;77901.13;5139144;27;19912;-36
2022/11/08 09:44:50;;;;;;;;;;;;;;;-143.48;63.45;77897.16;5138849;27;19912;-35
2022/11/08 09:47:22;;;;;;;;;;;;;;;-143.48;62.89;77881.28;5120138;27;19912;-36
2022/11/08 09:50:07;;;;;;;;;;;;;;;-143.48;62.62;77869.41;5138287;27;19926;-35
2022/11/08 09:52:33;;;;;;;;;;;;;;;-143.48;61.66;77843.63;5085667;27;19918;-35
2022/11/08 09:55:19;;;;;;;;;;;;;;;-143.48;61.23;77831.72;5138783;27;19911;-35
2022/11/08 09:57:56;;;;;;;;;;;;;;;-143.48;60.57;77813.88;5120145;27;19911;-35
2022/11/08 10:00:22;;;;;;;;;;;;;;;-143.48;59.90;77817.84;5138830;27;20011;-37
2022/11/08 10:02:47;;;;;;;;;;;;;;;-143.48;59.85;77809.91;5138586;27;19959;-35
2022/11/08 10:05:15;;;;;;;;;;;;;;;-143.48;59.81;77809.91;5137769;27;20026;-35
2022/11/08 10:07:48;;;;;;;;;;;;;;;-143.48;59.22;77800.00;5138581;27;19912;-35
2022/11/08 10:10:26;;;;;;;;;;;;;;;-143.48;59.19;77780.16;5138501;27;19915;-35
2022/11/08 10:12:58;;;;;;;;;;;;;;;-143.48;59.52;77800.00;5138158;27;19998;-36
2022/11/08 10:15:28;;;;;;;;;;;;;;;-143.48;59.29;77770.25;5136499;27;19927;-35
2022/11/08 10:18:13;;;;;;;;;;;;;;;-143.48;58.57;77786.13;5137052;27;19915;-35
2022/11/08 10:20:38;;;;;;;;;;;;;;;-143.48;58.62;77774.22;5136654;27;19916;-34
2022/11/08 10:23:12;;;;;;;;;;;;;;;-143.48;57.18;77766.28;5137168;27;19919;-36
2022/11/08 10:25:46;;;;;;;;;;;;;;;-143.48;57.94;77772.22;5135588;27;19998;-35
2022/11/08 10:28:16;;;;;;;;;;;;;;;-143.48;58.48;77801.97;5135861;27;19918;-34
2022/11/08 10:30:43;;;;;;;;;;;;;;;-143.48;58.58;77784.13;5137094;27;19952;-35
2022/11/08 10:33:29;;;;;;;;;;;;;;;-143.48;58.67;77792.06;5137653;27;20002;-37
2022/11/08 10:35:56;;;;;;;;;;;;;;;-143.48;59.04;77796.03;5102062;27;19934;-34
2022/11/08 10:38:29;;;;;;;;;;;;;;;-143.48;58.96;77792.06;5137707;27;19911;-35
2022/11/08 10:41:00;;;;;;;;;;;;;;;-143.48;59.52;77803.97;5119048;27;19958;-36
2022/11/08 10:43:32;;;;;;;;;;;;;;;-143.48;59.79;77800.00;5137828;27;19929;-35
2022/11/08 10:45:57;;;;;;;;;;;;;;;-143.48;59.46;77813.88;5137351;27;20009;-36
2022/11/08 10:48:22;;;;;;;;;;;;;;;-143.48;58.97;77800.00;5137347;27;20416;-36
2022/11/08 10:50:49;;;;;;;;;;;;;;;-143.48;59.34;77798.00;5136563;27;19911;-35
2022/11/08 10:53:28;;;;;;;;;;;;;;;-143.48;59.63;77798.00;5137563;27;19918;-35
2022/11/08 10:55:59;;;;;;;;;;;;;;;-143.48;59.04;77788.09;5118433;27;19923;-35
2022/11/08 10:58:29;;;;;;;;;;;;;;;-143.48;58.89;77798.00;5137091;27;19912;-35
2022/11/08 11:00:59;;;;;;;;;;;;;;;-143.48;58.53;77778.19;5136985;27;19915;-35
2022/11/08 11:03:29;;;;;;;;;;;;;;;-143.48;58.32;77748.44;5137041;27;19999;-35
2022/11/08 11:06:04;;;;;;;;;;;;;;;-143.48;57.08;77710.75;5136839;27;19915;-35
2022/11/08 11:08:30;;;;;;;;;;;;;;;-143.48;57.49;77716.72;5137017;27;19918;-37
2022/11/08 11:10:55;;;;;;;;;;;;;;;-143.48;57.86;77716.72;5136743;27;20369;-35
2022/11/08 11:13:22;;;;;;;;;;;;;;;-143.48;57.84;77718.69;5135918;27;19918;-35
2022/11/08 11:15:49;;;;;;;;;;;;;;;-143.48;58.08;77702.84;5135675;27;19924;-34
2022/11/08 11:18:17;;;;;;;;;;;;;;;-143.48;58.38;77700.84;5137070;27;19912;-35
2022/11/08 11:20:55;;;;;;;;;;;;;;;-143.48;58.62;77694.91;5118095;27;20360;-35
2022/11/08 11:23:21;;;;;;;;;;;;;;;-143.48;58.47;77694.91;5136276;27;19918;-35
2022/11/08 11:25:49;;;;;;;;;;;;;;;-143.48;58.96;77708.78;5136752;27;19911;-34
2022/11/08 11:28:14;;;;;;;;;;;;;;;-143.48;58.28;77690.94;5136012;27;19964;-35
2022/11/08 11:30:41;;;;;;;;;;;;;;;-143.48;56.83;77631.44;5134373;27;19912;-35
2022/11/08 11:33:12;;;;;;;;;;;;;;;-143.48;55.74;77581.88;5133282;27;19918;-35
2022/11/08 11:35:46;;;;;;;;;;;;;;;-143.48;56.28;77601.72;5135364;27;19929;-34
2022/11/08 11:38:26;;;;;;;;;;;;;;;-143.48;56.43;77611.63;5117638;27;19964;-35
2022/11/08 11:40:54;;;;;;;;;;;;;;;-143.48;56.39;77633.44;5136147;27;20276;-35
2022/11/08 11:43:28;;;;;;;;;;;;;;;-143.48;57.14;77637.41;5135442;27;19911;-35
2022/11/08 11:46:01;;;;;;;;;;;;;;;-143.48;56.73;77637.41;5135822;27;20007;-35
2022/11/08 11:48:30;;;;;;;;;;;;;;;-143.48;57.62;77671.09;5135538;27;19998;-35
2022/11/08 11:50:56;;;;;;;;;;;;;;;-143.48;57.21;77657.22;5117376;27;19954;-35
2022/11/08 11:53:21;;;;;;;;;;;;;;;-143.48;56.86;77635.41;5136051;27;19912;-35
2022/11/08 11:55:59;;;;;;;;;;;;;;;-143.48;51.29;77371.69;5136013;27;19918;-37
2022/11/08 11:58:33;;;;;;;;;;;;;;;-143.48;54.95;77569.97;5135683;27;19912;-35
2022/11/08 12:01:03;;;;;;;;;;;;;;;-143.48;54.17;77526.34;5136206;27;19919;-35
2022/11/08 12:03:28;;;;;;;;;;;;;;;-143.48;55.03;77569.97;5135964;27;19913;-35
2022/11/08 12:05:53;;;;;;;;;;;;;;;-143.48;52.60;77441.09;5135498;27;19915;-35
2022/11/08 12:08:28;;;;;;;;;;;;;;;-143.48;47.02;77135.75;5136066;27;19911;-35
2022/11/08 12:11:08;;;;;;;;;;;;;;;-143.48;44.68;77098.09;5135977;27;20015;-35
2022/11/08 12:13:33;;;;;;;;;;;;;;;-143.48;44.38;77034.66;5135554;27;19923;-35
2022/11/08 12:16:18;;;;;;;;;;;;;;;-143.48;42.24;76951.38;5135380;27;19920;-34
2022/11/08 12:18:59;;;;;;;;;;;;;;;-143.48;42.02;76915.69;5134373;27;19968;-35
2022/11/08 12:21:39;;;;;;;;;;;;;;;-143.48;42.16;76945.44;5135631;27;19979;-35
2022/11/08 12:24:05;;;;;;;;;;;;;;;-143.48;44.78;77131.81;5135924;27;20048;-36
2022/11/08 12:26:35;;;;;;;;;;;;;;;-143.48;45.16;77123.88;5134873;27;20412;-36
2022/11/08 12:29:06;;;;;;;;;;;;;;;-143.48;45.57;77139.72;5135618;27;20010;-34
2022/11/08 12:31:33;;;;;;;;;;;;;;;-143.48;47.51;77264.63;5134253;27;19911;-35
2022/11/08 12:33:59;;;;;;;;;;;;;;;-143.48;48.62;77294.38;5133652;27;20053;-35
2022/11/08 12:36:53;;;;;;;;;;;;;;;-143.48;48.63;77300.31;5135408;27;19953;-36
2022/11/08 12:39:26;;;;;;;;;;;;;;;-143.48;49.07;77318.16;5112631;27;20299;-35
2022/11/08 12:42:10;;;;;;;;;;;;;;;-143.48;50.08;77379.63;5135587;27;19911;-36
2022/11/08 12:44:53;;;;;;;;;;;;;;;-143.48;51.21;77405.41;5134912;27;19936;-34
2022/11/08 12:47:24;;;;;;;;;;;;;;;-143.48;51.48;77451.00;5134626;27;19911;-35
2022/11/08 12:50:11;;;;;;;;;;;;;;;-143.48;51.33;77389.53;5114560;27;19946;-36
2022/11/08 12:52:59;;;;;;;;;;;;;;;-143.48;51.68;77411.34;5116024;27;20378;-36